sensor_id;sensor_type;location;lat;lon;timestamp;pressure;altitude;pressure_sealevel;temperature
37452;BMP280;23314;51.114;6.900;2024-03-02T00:01:54;99761.72;;;9.62
37452;BMP280;23314;51.114;6.900;2024-03-02T00:04:19;99761.78;;;9.58
37452;BMP280;23314;51.114;6.900;2024-03-02T00:06:44;99755.56;;;9.65
37452;BMP280;23314;51.114;6.900;2024-03-02T00:09:10;99761.47;;;9.73
37452;BMP280;23314;51.114;6.900;2024-03-02T00:11:38;99755.44;;;9.85
37452;BMP280;23314;51.114;6.900;2024-03-02T00:14:04;99753.66;;;9.95
37452;BMP280;23314;51.114;6.900;2024-03-02T00:16:30;99750.91;;;9.99
37452;BMP280;23314;51.114;6.900;2024-03-02T00:18:56;99760.97;;;10.07
37452;BMP280;23314;51.114;6.900;2024-03-02T00:21:27;99759.38;;;10.10
37452;BMP280;23314;51.114;6.900;2024-03-02T00:23:53;99752.44;;;10.12
37452;BMP280;23314;51.114;6.900;2024-03-02T00:26:18;99749.72;;;10.16
37452;BMP280;23314;51.114;6.900;2024-03-02T00:28:44;99742.34;;;10.20
37452;BMP280;23314;51.114;6.900;2024-03-02T00:31:13;99742.66;;;10.22
37452;BMP280;23314;51.114;6.900;2024-03-02T00:33:44;99724.97;;;10.28
37452;BMP280;23314;51.114;6.900;2024-03-02T00:36:12;99730.53;;;10.34
37452;BMP280;23314;51.114;6.900;2024-03-02T00:38:51;99730.78;;;10.40
37452;BMP280;23314;51.114;6.900;2024-03-02T00:43:59;99737.72;;;10.50
37452;BMP280;23314;51.114;6.900;2024-03-02T00:46:27;99731.13;;;10.55
37452;BMP280;23314;51.114;6.900;2024-03-02T00:49:00;99728.69;;;10.60
37452;BMP280;23314;51.114;6.900;2024-03-02T00:51:28;99721.72;;;10.63
37452;BMP280;23314;51.114;6.900;2024-03-02T00:53:57;99725.88;;;10.64
37452;BMP280;23314;51.114;6.900;2024-03-02T00:56:23;99724.63;;;10.69
37452;BMP280;23314;51.114;6.900;2024-03-02T00:58:49;99729.53;;;10.70
37452;BMP280;23314;51.114;6.900;2024-03-02T01:01:15;99729.84;;;10.72
37452;BMP280;23314;51.114;6.900;2024-03-02T01:03:41;99741.69;;;10.71
37452;BMP280;23314;51.114;6.900;2024-03-02T01:06:07;99734.34;;;10.75
37452;BMP280;23314;51.114;6.900;2024-03-02T01:08:36;99740.19;;;10.83
37452;BMP280;23314;51.114;6.900;2024-03-02T01:11:03;99741.69;;;10.84
37452;BMP280;23314;51.114;6.900;2024-03-02T01:13:29;99733.69;;;10.84
37452;BMP280;23314;51.114;6.900;2024-03-02T01:15:55;99737.53;;;10.83
37452;BMP280;23314;51.114;6.900;2024-03-02T01:18:20;99722.81;;;10.79
37452;BMP280;23314;51.114;6.900;2024-03-02T01:20:47;99730.06;;;10.78
37452;BMP280;23314;51.114;6.900;2024-03-02T01:23:13;99740.84;;;10.74
37452;BMP280;23314;51.114;6.900;2024-03-02T01:25:38;99738.91;;;10.62
37452;BMP280;23314;51.114;6.900;2024-03-02T01:28:04;99729.63;;;10.54
37452;BMP280;23314;51.114;6.900;2024-03-02T01:30:29;99738.16;;;10.49
37452;BMP280;23314;51.114;6.900;2024-03-02T01:32:55;99734.31;;;10.37
37452;BMP280;23314;51.114;6.900;2024-03-02T01:35:20;99734.06;;;10.31
37452;BMP280;23314;51.114;6.900;2024-03-02T01:37:46;99729.34;;;10.22
37452;BMP280;23314;51.114;6.900;2024-03-02T01:40:11;99730.63;;;10.18
37452;BMP280;23314;51.114;6.900;2024-03-02T01:42:38;99733.06;;;10.12
37452;BMP280;23314;51.114;6.900;2024-03-02T01:45:10;99725.72;;;10.16
37452;BMP280;23314;51.114;6.900;2024-03-02T01:47:35;99720.50;;;10.25
37452;BMP280;23314;51.114;6.900;2024-03-02T01:50:00;99720.22;;;10.36
37452;BMP280;23314;51.114;6.900;2024-03-02T01:52:26;99719.88;;;10.47
37452;BMP280;23314;51.114;6.900;2024-03-02T01:54:52;99714.69;;;10.56
37452;BMP280;23314;51.114;6.900;2024-03-02T01:57:18;99716.31;;;10.67
37452;BMP280;23314;51.114;6.900;2024-03-02T01:59:45;99721.31;;;10.78
37452;BMP280;23314;51.114;6.900;2024-03-02T02:02:12;99718.09;;;10.83
37452;BMP280;23314;51.114;6.900;2024-03-02T02:04:38;99723.66;;;10.88
37452;BMP280;23314;51.114;6.900;2024-03-02T02:07:04;99724.59;;;10.95
37452;BMP280;23314;51.114;6.900;2024-03-02T02:09:29;99728.34;;;10.97
37452;BMP280;23314;51.114;6.900;2024-03-02T02:11:54;99716.28;;;11.05
37452;BMP280;23314;51.114;6.900;2024-03-02T02:14:20;99715.00;;;11.10
37452;BMP280;23314;51.114;6.900;2024-03-02T02:16:45;99717.13;;;11.15
37452;BMP280;23314;51.114;6.900;2024-03-02T02:19:12;99696.81;;;11.18
37452;BMP280;23314;51.114;6.900;2024-03-02T02:21:37;99709.63;;;11.23
37452;BMP280;23314;51.114;6.900;2024-03-02T02:24:02;99709.50;;;11.27
37452;BMP280;23314;51.114;6.900;2024-03-02T02:26:29;99712.19;;;11.27
37452;BMP280;23314;51.114;6.900;2024-03-02T02:28:54;99722.84;;;11.27
37452;BMP280;23314;51.114;6.900;2024-03-02T02:31:20;99715.91;;;11.29
37452;BMP280;23314;51.114;6.900;2024-03-02T02:33:45;99712.38;;;11.32
37452;BMP280;23314;51.114;6.900;2024-03-02T02:39:58;99711.41;;;11.39
37452;BMP280;23314;51.114;6.900;2024-03-02T02:42:23;99722.59;;;11.47
37452;BMP280;23314;51.114;6.900;2024-03-02T02:44:49;99711.72;;;11.41
37452;BMP280;23314;51.114;6.900;2024-03-02T02:47:14;99718.31;;;11.36
37452;BMP280;23314;51.114;6.900;2024-03-02T02:49:39;99717.16;;;11.37
37452;BMP280;23314;51.114;6.900;2024-03-02T02:52:05;99708.84;;;11.35
37452;BMP280;23314;51.114;6.900;2024-03-02T02:54:30;99715.63;;;11.27
37452;BMP280;23314;51.114;6.900;2024-03-02T02:56:55;99716.03;;;11.25
37452;BMP280;23314;51.114;6.900;2024-03-02T02:59:21;99709.63;;;11.23
37452;BMP280;23314;51.114;6.900;2024-03-02T03:01:46;99721.69;;;11.28
37452;BMP280;23314;51.114;6.900;2024-03-02T03:04:11;99710.13;;;11.31
37452;BMP280;23314;51.114;6.900;2024-03-02T03:06:37;99704.97;;;11.36
37452;BMP280;23314;51.114;6.900;2024-03-02T03:09:02;99697.63;;;11.40
37452;BMP280;23314;51.114;6.900;2024-03-02T03:11:28;99698.06;;;11.39
37452;BMP280;23314;51.114;6.900;2024-03-02T03:13:53;99708.28;;;11.40
37452;BMP280;23314;51.114;6.900;2024-03-02T03:16:19;99716.53;;;11.33
37452;BMP280;23314;51.114;6.900;2024-03-02T03:18:45;99725.19;;;11.24
37452;BMP280;23314;51.114;6.900;2024-03-02T03:21:10;99724.25;;;11.18
37452;BMP280;23314;51.114;6.900;2024-03-02T03:23:35;99728.34;;;11.10
37452;BMP280;23314;51.114;6.900;2024-03-02T03:26:01;99729.06;;;11.11
37452;BMP280;23314;51.114;6.900;2024-03-02T03:28:26;99724.03;;;11.13
37452;BMP280;23314;51.114;6.900;2024-03-02T03:30:51;99730.88;;;11.14
37452;BMP280;23314;51.114;6.900;2024-03-02T03:33:16;99730.34;;;11.19
37452;BMP280;23314;51.114;6.900;2024-03-02T03:35:42;99729.69;;;11.15
37452;BMP280;23314;51.114;6.900;2024-03-02T03:38:07;99726.28;;;11.14
37452;BMP280;23314;51.114;6.900;2024-03-02T03:40:32;99731.53;;;11.18
37452;BMP280;23314;51.114;6.900;2024-03-02T03:42:58;99730.47;;;11.15
37452;BMP280;23314;51.114;6.900;2024-03-02T03:45:25;99733.34;;;11.08
37452;BMP280;23314;51.114;6.900;2024-03-02T03:47:52;99738.56;;;10.99
37452;BMP280;23314;51.114;6.900;2024-03-02T03:50:17;99737.53;;;10.83
37452;BMP280;23314;51.114;6.900;2024-03-02T03:52:43;99732.06;;;10.74
37452;BMP280;23314;51.114;6.900;2024-03-02T03:55:08;99733.16;;;10.64
37452;BMP280;23314;51.114;6.900;2024-03-02T03:57:35;99726.22;;;10.53
37452;BMP280;23314;51.114;6.900;2024-03-02T04:00:00;99729.06;;;10.46
37452;BMP280;23314;51.114;6.900;2024-03-02T04:02:26;99721.81;;;10.47
37452;BMP280;23314;51.114;6.900;2024-03-02T04:04:51;99731.72;;;10.46
37452;BMP280;23314;51.114;6.900;2024-03-02T04:07:16;99736.44;;;10.42
37452;BMP280;23314;51.114;6.900;2024-03-02T04:09:42;99731.31;;;10.35
37452;BMP280;23314;51.114;6.900;2024-03-02T04:12:07;99742.16;;;10.27
37452;BMP280;23314;51.114;6.900;2024-03-02T04:14:33;99744.72;;;10.18
37452;BMP280;23314;51.114;6.900;2024-03-02T04:16:58;99739.25;;;10.09
37452;BMP280;23314;51.114;6.900;2024-03-02T04:19:23;99750.50;;;10.00
37452;BMP280;23314;51.114;6.900;2024-03-02T04:21:49;99741.28;;;9.88
37452;BMP280;23314;51.114;6.900;2024-03-02T04:24:14;99742.22;;;9.82
37452;BMP280;23314;51.114;6.900;2024-03-02T04:26:39;99745.78;;;9.75
37452;BMP280;23314;51.114;6.900;2024-03-02T04:29:05;99746.00;;;9.68
37452;BMP280;23314;51.114;6.900;2024-03-02T04:31:30;99748.59;;;9.55
37452;BMP280;23314;51.114;6.900;2024-03-02T04:33:55;99759.38;;;9.47
37452;BMP280;23314;51.114;6.900;2024-03-02T04:36:21;99758.47;;;9.38
37452;BMP280;23314;51.114;6.900;2024-03-02T04:38:46;99763.72;;;9.25
37452;BMP280;23314;51.114;6.900;2024-03-02T04:41:12;99760.56;;;9.13
37452;BMP280;23314;51.114;6.900;2024-03-02T04:43:37;99761.47;;;9.07
37452;BMP280;23314;51.114;6.900;2024-03-02T04:46:02;99763.84;;;9.01
37452;BMP280;23314;51.114;6.900;2024-03-02T04:48:28;99753.63;;;8.99
37452;BMP280;23314;51.114;6.900;2024-03-02T04:50:53;99748.56;;;9.05
37452;BMP280;23314;51.114;6.900;2024-03-02T04:53:19;99748.81;;;9.11
37452;BMP280;23314;51.114;6.900;2024-03-02T04:55:44;99756.41;;;9.12
37452;BMP280;23314;51.114;6.900;2024-03-02T04:58:09;99750.47;;;9.05
37452;BMP280;23314;51.114;6.900;2024-03-02T05:00:35;99748.22;;;9.03
37452;BMP280;23314;51.114;6.900;2024-03-02T05:03:00;99751.31;;;9.02
37452;BMP280;23314;51.114;6.900;2024-03-02T05:05:26;99749.75;;;9.04
37452;BMP280;23314;51.114;6.900;2024-03-02T05:07:52;99756.06;;;9.10
37452;BMP280;23314;51.114;6.900;2024-03-02T05:10:17;99745.00;;;9.12
37452;BMP280;23314;51.114;6.900;2024-03-02T05:12:42;99750.06;;;9.06
37452;BMP280;23314;51.114;6.900;2024-03-02T05:15:12;99747.47;;;9.03
37452;BMP280;23314;51.114;6.900;2024-03-02T05:17:39;99743.25;;;9.05
37452;BMP280;23314;51.114;6.900;2024-03-02T05:20:08;99738.94;;;9.11
37452;BMP280;23314;51.114;6.900;2024-03-02T05:22:33;99739.28;;;9.13
37452;BMP280;23314;51.114;6.900;2024-03-02T05:24:59;99741.53;;;9.15
37452;BMP280;23314;51.114;6.900;2024-03-02T05:27:26;99743.41;;;9.14
37452;BMP280;23314;51.114;6.900;2024-03-02T05:29:51;99739.34;;;9.10
37452;BMP280;23314;51.114;6.900;2024-03-02T05:32:16;99735.28;;;9.05
37452;BMP280;23314;51.114;6.900;2024-03-02T05:34:41;99744.81;;;9.03
37452;BMP280;23314;51.114;6.900;2024-03-02T05:37:07;99747.16;;;9.01
37452;BMP280;23314;51.114;6.900;2024-03-02T05:39:32;99747.53;;;8.99
37452;BMP280;23314;51.114;6.900;2024-03-02T05:41:57;99745.34;;;8.97
37452;BMP280;23314;51.114;6.900;2024-03-02T05:44:23;99748.22;;;8.87
37452;BMP280;23314;51.114;6.900;2024-03-02T05:46:48;99743.75;;;8.80
37452;BMP280;23314;51.114;6.900;2024-03-02T05:49:13;99740.47;;;8.76
37452;BMP280;23314;51.114;6.900;2024-03-02T05:51:39;99743.16;;;8.72
37452;BMP280;23314;51.114;6.900;2024-03-02T05:54:04;99742.59;;;8.64
37452;BMP280;23314;51.114;6.900;2024-03-02T05:56:29;99740.13;;;8.54
37452;BMP280;23314;51.114;6.900;2024-03-02T05:58:54;99738.38;;;8.47
37452;BMP280;23314;51.114;6.900;2024-03-02T06:01:34;99744.16;;;8.42
37452;BMP280;23314;51.114;6.900;2024-03-02T06:03:59;99747.56;;;8.42
37452;BMP280;23314;51.114;6.900;2024-03-02T06:06:25;99745.19;;;8.48
37452;BMP280;23314;51.114;6.900;2024-03-02T06:08:51;99756.50;;;8.52
37452;BMP280;23314;51.114;6.900;2024-03-02T06:11:17;99756.28;;;8.63
37452;BMP280;23314;51.114;6.900;2024-03-02T06:13:42;99752.31;;;8.71
37452;BMP280;23314;51.114;6.900;2024-03-02T06:16:07;99748.63;;;8.85
37452;BMP280;23314;51.114;6.900;2024-03-02T06:18:34;99748.81;;;8.94
37452;BMP280;23314;51.114;6.900;2024-03-02T06:20:59;99751.84;;;8.93
37452;BMP280;23314;51.114;6.900;2024-03-02T06:23:26;99751.13;;;8.92
37452;BMP280;23314;51.114;6.900;2024-03-02T06:25:52;99767.81;;;8.93
37452;BMP280;23314;51.114;6.900;2024-03-02T06:28:17;99761.69;;;8.96
37452;BMP280;23314;51.114;6.900;2024-03-02T06:30:43;99766.44;;;9.05
37452;BMP280;23314;51.114;6.900;2024-03-02T06:33:09;99778.84;;;9.11
37452;BMP280;23314;51.114;6.900;2024-03-02T06:35:34;99780.63;;;9.18
37452;BMP280;23314;51.114;6.900;2024-03-02T06:38:00;99787.31;;;9.23
37452;BMP280;23314;51.114;6.900;2024-03-02T06:40:26;99790.91;;;9.32
37452;BMP280;23314;51.114;6.900;2024-03-02T06:42:51;99795.31;;;9.39
37452;BMP280;23314;51.114;6.900;2024-03-02T06:45:16;99801.25;;;9.47
37452;BMP280;23314;51.114;6.900;2024-03-02T06:47:42;99797.41;;;9.48
37452;BMP280;23314;51.114;6.900;2024-03-02T06:50:08;99796.56;;;9.51
37452;BMP280;23314;51.114;6.900;2024-03-02T06:52:34;99801.38;;;9.56
37452;BMP280;23314;51.114;6.900;2024-03-02T06:55:00;99804.22;;;9.66
37452;BMP280;23314;51.114;6.900;2024-03-02T06:57:25;99812.47;;;9.71
37452;BMP280;23314;51.114;6.900;2024-03-02T06:59:51;99802.38;;;9.79
37452;BMP280;23314;51.114;6.900;2024-03-02T07:02:19;99806.63;;;9.93
37452;BMP280;23314;51.114;6.900;2024-03-02T07:04:45;99806.03;;;10.02
37452;BMP280;23314;51.114;6.900;2024-03-02T07:07:10;99809.50;;;10.15
37452;BMP280;23314;51.114;6.900;2024-03-02T07:09:36;99808.78;;;10.27
37452;BMP280;23314;51.114;6.900;2024-03-02T07:12:01;99815.66;;;10.41
37452;BMP280;23314;51.114;6.900;2024-03-02T07:14:27;99819.66;;;10.63
37452;BMP280;23314;51.114;6.900;2024-03-02T07:17:13;99815.53;;;10.74
37452;BMP280;23314;51.114;6.900;2024-03-02T07:19:38;99815.97;;;10.86
37452;BMP280;23314;51.114;6.900;2024-03-02T07:22:07;99808.78;;;10.96
37452;BMP280;23314;51.114;6.900;2024-03-02T07:24:43;99820.66;;;11.07
37452;BMP280;23314;51.114;6.900;2024-03-02T07:27:09;99825.44;;;11.13
37452;BMP280;23314;51.114;6.900;2024-03-02T07:29:35;99821.41;;;11.21
37452;BMP280;23314;51.114;6.900;2024-03-02T07:32:01;99818.97;;;11.27
37452;BMP280;23314;51.114;6.900;2024-03-02T07:34:26;99826.63;;;11.37
37452;BMP280;23314;51.114;6.900;2024-03-02T07:36:52;99834.63;;;11.50
37452;BMP280;23314;51.114;6.900;2024-03-02T07:39:17;99839.44;;;11.55
37452;BMP280;23314;51.114;6.900;2024-03-02T07:41:45;99830.34;;;11.66
37452;BMP280;23314;51.114;6.900;2024-03-02T07:44:10;99838.00;;;11.77
37452;BMP280;23314;51.114;6.900;2024-03-02T07:46:42;99837.13;;;11.80
37452;BMP280;23314;51.114;6.900;2024-03-02T07:49:08;99833.47;;;11.86
37452;BMP280;23314;51.114;6.900;2024-03-02T07:51:34;99830.22;;;11.92
37452;BMP280;23314;51.114;6.900;2024-03-02T07:53:59;99829.47;;;12.04
37452;BMP280;23314;51.114;6.900;2024-03-02T07:56:25;99841.69;;;12.14
37452;BMP280;23314;51.114;6.900;2024-03-02T07:58:50;99851.91;;;12.29
37452;BMP280;23314;51.114;6.900;2024-03-02T08:01:15;99859.25;;;12.37
37452;BMP280;23314;51.114;6.900;2024-03-02T08:03:43;99864.47;;;12.41
37452;BMP280;23314;51.114;6.900;2024-03-02T08:06:13;99866.84;;;12.39
37452;BMP280;23314;51.114;6.900;2024-03-02T08:08:40;99873.78;;;12.36
37452;BMP280;23314;51.114;6.900;2024-03-02T08:11:05;99875.13;;;12.32
37452;BMP280;23314;51.114;6.900;2024-03-02T08:13:31;99877.13;;;12.41
37452;BMP280;23314;51.114;6.900;2024-03-02T08:15:56;99881.13;;;12.45
37452;BMP280;23314;51.114;6.900;2024-03-02T08:18:21;99878.34;;;12.49
37452;BMP280;23314;51.114;6.900;2024-03-02T08:20:47;99886.97;;;12.53
37452;BMP280;23314;51.114;6.900;2024-03-02T08:23:12;99882.25;;;12.57
37452;BMP280;23314;51.114;6.900;2024-03-02T08:25:37;99877.53;;;12.61
37452;BMP280;23314;51.114;6.900;2024-03-02T08:28:03;99887.66;;;12.66
37452;BMP280;23314;51.114;6.900;2024-03-02T08:30:28;99893.34;;;12.68
37452;BMP280;23314;51.114;6.900;2024-03-02T08:32:53;99888.72;;;12.69
37452;BMP280;23314;51.114;6.900;2024-03-02T08:35:19;99875.94;;;12.73
37452;BMP280;23314;51.114;6.900;2024-03-02T08:37:44;99877.31;;;12.78
37452;BMP280;23314;51.114;6.900;2024-03-02T08:40:10;99873.44;;;12.79
37452;BMP280;23314;51.114;6.900;2024-03-02T08:42:35;99869.34;;;12.87
37452;BMP280;23314;51.114;6.900;2024-03-02T08:45:01;99867.41;;;12.87
37452;BMP280;23314;51.114;6.900;2024-03-02T08:47:27;99873.94;;;12.86
37452;BMP280;23314;51.114;6.900;2024-03-02T08:49:52;99878.53;;;12.86
37452;BMP280;23314;51.114;6.900;2024-03-02T08:52:18;99881.06;;;12.80
37452;BMP280;23314;51.114;6.900;2024-03-02T08:54:43;99865.00;;;12.80
37452;BMP280;23314;51.114;6.900;2024-03-02T08:57:09;99866.06;;;12.83
37452;BMP280;23314;51.114;6.900;2024-03-02T08:59:34;99872.16;;;12.83
37452;BMP280;23314;51.114;6.900;2024-03-02T09:01:59;99882.16;;;12.92
37452;BMP280;23314;51.114;6.900;2024-03-02T09:04:25;99890.22;;;13.01
37452;BMP280;23314;51.114;6.900;2024-03-02T09:06:50;99887.75;;;13.16
37452;BMP280;23314;51.114;6.900;2024-03-02T09:09:15;99890.78;;;13.28
37452;BMP280;23314;51.114;6.900;2024-03-02T09:11:41;99897.97;;;13.59
37452;BMP280;23314;51.114;6.900;2024-03-02T09:14:06;99896.66;;;13.63
37452;BMP280;23314;51.114;6.900;2024-03-02T09:16:31;99901.13;;;13.66
37452;BMP280;23314;51.114;6.900;2024-03-02T09:18:57;99903.94;;;13.63
37452;BMP280;23314;51.114;6.900;2024-03-02T09:21:23;99909.72;;;13.52
37452;BMP280;23314;51.114;6.900;2024-03-02T09:23:48;99903.59;;;13.42
37452;BMP280;23314;51.114;6.900;2024-03-02T09:26:14;99905.38;;;13.36
37452;BMP280;23314;51.114;6.900;2024-03-02T09:28:43;99905.97;;;13.40
37452;BMP280;23314;51.114;6.900;2024-03-02T09:31:08;99905.53;;;13.42
37452;BMP280;23314;51.114;6.900;2024-03-02T09:33:34;99900.03;;;13.45
37452;BMP280;23314;51.114;6.900;2024-03-02T09:35:59;99901.53;;;13.46
37452;BMP280;23314;51.114;6.900;2024-03-02T09:38:24;99887.25;;;13.49
37452;BMP280;23314;51.114;6.900;2024-03-02T09:40:49;99889.66;;;13.57
37452;BMP280;23314;51.114;6.900;2024-03-02T09:43:15;99882.50;;;13.63
37452;BMP280;23314;51.114;6.900;2024-03-02T09:45:41;99878.50;;;13.67
37452;BMP280;23314;51.114;6.900;2024-03-02T09:48:06;99877.00;;;13.66
37452;BMP280;23314;51.114;6.900;2024-03-02T09:50:32;99883.88;;;13.67
37452;BMP280;23314;51.114;6.900;2024-03-02T09:52:58;99884.75;;;13.74
37452;BMP280;23314;51.114;6.900;2024-03-02T09:55:24;99883.88;;;13.77
37452;BMP280;23314;51.114;6.900;2024-03-02T09:57:50;99883.13;;;13.76
37452;BMP280;23314;51.114;6.900;2024-03-02T10:00:16;99884.91;;;13.79
37452;BMP280;23314;51.114;6.900;2024-03-02T10:02:42;99883.72;;;13.80
37452;BMP280;23314;51.114;6.900;2024-03-02T10:05:11;99880.16;;;13.83
37452;BMP280;23314;51.114;6.900;2024-03-02T10:07:39;99878.38;;;13.90
37452;BMP280;23314;51.114;6.900;2024-03-02T10:10:15;99874.31;;;13.94
37452;BMP280;23314;51.114;6.900;2024-03-02T10:12:41;99871.50;;;13.98
37452;BMP280;23314;51.114;6.900;2024-03-02T10:15:06;99877.78;;;14.04
37452;BMP280;23314;51.114;6.900;2024-03-02T10:17:33;99877.03;;;14.13
37452;BMP280;23314;51.114;6.900;2024-03-02T10:19:58;99883.25;;;14.19
37452;BMP280;23314;51.114;6.900;2024-03-02T10:22:23;99874.19;;;14.26
37452;BMP280;23314;51.114;6.900;2024-03-02T10:24:49;99875.69;;;14.27
37452;BMP280;23314;51.114;6.900;2024-03-02T10:27:22;99880.88;;;14.30
37452;BMP280;23314;51.114;6.900;2024-03-02T10:29:48;99894.72;;;14.38
37452;BMP280;23314;51.114;6.900;2024-03-02T10:32:15;99886.06;;;14.43
37452;BMP280;23314;51.114;6.900;2024-03-02T10:34:42;99896.66;;;14.47
37452;BMP280;23314;51.114;6.900;2024-03-02T10:37:10;99889.94;;;14.51
37452;BMP280;23314;51.114;6.900;2024-03-02T10:39:36;99890.66;;;14.61
37452;BMP280;23314;51.114;6.900;2024-03-02T10:42:05;99884.38;;;14.64
37452;BMP280;23314;51.114;6.900;2024-03-02T10:44:31;99876.91;;;14.68
37452;BMP280;23314;51.114;6.900;2024-03-02T10:47:00;99879.16;;;14.70
37452;BMP280;23314;51.114;6.900;2024-03-02T10:49:26;99870.59;;;14.72
37452;BMP280;23314;51.114;6.900;2024-03-02T10:51:51;99872.53;;;14.80
37452;BMP280;23314;51.114;6.900;2024-03-02T10:54:16;99871.78;;;14.89
37452;BMP280;23314;51.114;6.900;2024-03-02T10:56:44;99872.47;;;14.90
37452;BMP280;23314;51.114;6.900;2024-03-02T10:59:33;99872.47;;;14.90
37452;BMP280;23314;51.114;6.900;2024-03-02T11:02:00;99861.16;;;14.95
37452;BMP280;23314;51.114;6.900;2024-03-02T11:04:28;99855.47;;;14.93
37452;BMP280;23314;51.114;6.900;2024-03-02T11:07:06;99854.72;;;14.92
37452;BMP280;23314;51.114;6.900;2024-03-02T11:09:39;99847.53;;;14.98
37452;BMP280;23314;51.114;6.900;2024-03-02T11:12:29;99853.03;;;15.04
37452;BMP280;23314;51.114;6.900;2024-03-02T11:14:58;99849.91;;;15.06
37452;BMP280;23314;51.114;6.900;2024-03-02T11:17:24;99851.84;;;15.05
37452;BMP280;23314;51.114;6.900;2024-03-02T11:19:50;99844.06;;;15.07
37452;BMP280;23314;51.114;6.900;2024-03-02T11:22:17;99851.31;;;15.16
37452;BMP280;23314;51.114;6.900;2024-03-02T11:24:50;99847.22;;;15.30
37452;BMP280;23314;51.114;6.900;2024-03-02T11:33:02;99845.72;;;15.53
37452;BMP280;23314;51.114;6.900;2024-03-02T11:35:34;99848.50;;;15.59
37452;BMP280;23314;51.114;6.900;2024-03-02T11:38:01;99849.28;;;15.59
37452;BMP280;23314;51.114;6.900;2024-03-02T11:40:30;99850.47;;;15.58
37452;BMP280;23314;51.114;6.900;2024-03-02T11:43:02;99851.00;;;15.62
37452;BMP280;23314;51.114;6.900;2024-03-02T11:45:28;99845.91;;;15.64
37452;BMP280;23314;51.114;6.900;2024-03-02T11:47:54;99845.28;;;15.69
37452;BMP280;23314;51.114;6.900;2024-03-02T11:52:56;99833.44;;;15.76
37452;BMP280;23314;51.114;6.900;2024-03-02T11:55:25;99833.69;;;15.78
37452;BMP280;23314;51.114;6.900;2024-03-02T11:57:52;99829.91;;;15.70
37452;BMP280;23314;51.114;6.900;2024-03-02T12:00:18;99829.69;;;15.59
37452;BMP280;23314;51.114;6.900;2024-03-02T12:02:43;99831.53;;;15.52
37452;BMP280;23314;51.114;6.900;2024-03-02T12:05:13;99824.03;;;15.57
37452;BMP280;23314;51.114;6.900;2024-03-02T12:07:38;99829.91;;;15.70
37452;BMP280;23314;51.114;6.900;2024-03-02T12:10:04;99821.56;;;15.83
37452;BMP280;23314;51.114;6.900;2024-03-02T12:12:30;99811.75;;;15.95
37452;BMP280;23314;51.114;6.900;2024-03-02T12:14:56;99815.84;;;16.05
37452;BMP280;23314;51.114;6.900;2024-03-02T12:17:22;99805.41;;;16.13
37452;BMP280;23314;51.114;6.900;2024-03-02T12:19:47;99804.31;;;16.19
37452;BMP280;23314;51.114;6.900;2024-03-02T12:22:13;99795.28;;;16.23
37452;BMP280;23314;51.114;6.900;2024-03-02T12:24:39;99800.13;;;16.33
37452;BMP280;23314;51.114;6.900;2024-03-02T12:27:05;99793.91;;;16.42
37452;BMP280;23314;51.114;6.900;2024-03-02T12:29:32;99795.72;;;16.51
37452;BMP280;23314;51.114;6.900;2024-03-02T12:31:57;99799.50;;;16.59
37452;BMP280;23314;51.114;6.900;2024-03-02T12:34:23;99780.53;;;16.68
37452;BMP280;23314;51.114;6.900;2024-03-02T12:36:49;99777.91;;;16.74
37452;BMP280;23314;51.114;6.900;2024-03-02T12:39:21;99775.38;;;16.85
37452;BMP280;23314;51.114;6.900;2024-03-02T12:41:49;99772.75;;;16.91
37452;BMP280;23314;51.114;6.900;2024-03-02T12:44:15;99782.56;;;16.94
37452;BMP280;23314;51.114;6.900;2024-03-02T12:46:41;99778.66;;;16.95
37452;BMP280;23314;51.114;6.900;2024-03-02T12:49:14;99788.00;;;17.00
37452;BMP280;23314;51.114;6.900;2024-03-02T12:51:43;99781.66;;;17.03
37452;BMP280;23314;51.114;6.900;2024-03-02T12:54:10;99779.56;;;17.13
37452;BMP280;23314;51.114;6.900;2024-03-02T12:56:36;99773.19;;;17.10
37452;BMP280;23314;51.114;6.900;2024-03-02T12:59:03;99764.16;;;17.13
37452;BMP280;23314;51.114;6.900;2024-03-02T13:01:29;99765.69;;;17.20
37452;BMP280;23314;51.114;6.900;2024-03-02T13:03:54;99766.91;;;17.19
37452;BMP280;23314;51.114;6.900;2024-03-02T13:06:23;99764.72;;;17.17
37452;BMP280;23314;51.114;6.900;2024-03-02T13:08:49;99766.44;;;17.20
37452;BMP280;23314;51.114;6.900;2024-03-02T13:11:16;99760.75;;;17.18
37452;BMP280;23314;51.114;6.900;2024-03-02T13:13:42;99764.44;;;17.15
37452;BMP280;23314;51.114;6.900;2024-03-02T13:16:09;99763.47;;;17.18
37452;BMP280;23314;51.114;6.900;2024-03-02T13:18:35;99761.22;;;17.11
37452;BMP280;23314;51.114;6.900;2024-03-02T13:21:00;99757.47;;;17.09
37452;BMP280;23314;51.114;6.900;2024-03-02T13:23:25;99752.44;;;17.16
37452;BMP280;23314;51.114;6.900;2024-03-02T13:25:51;99756.66;;;17.23
37452;BMP280;23314;51.114;6.900;2024-03-02T13:28:16;99752.22;;;17.20
37452;BMP280;23314;51.114;6.900;2024-03-02T13:30:42;99753.03;;;17.26
37452;BMP280;23314;51.114;6.900;2024-03-02T13:33:08;99756.75;;;17.34
37452;BMP280;23314;51.114;6.900;2024-03-02T13:35:33;99758.72;;;17.28
37452;BMP280;23314;51.114;6.900;2024-03-02T13:37:58;99758.63;;;17.23
37452;BMP280;23314;51.114;6.900;2024-03-02T13:40:24;99767.72;;;17.25
37452;BMP280;23314;51.114;6.900;2024-03-02T13:42:49;99754.69;;;17.24
37452;BMP280;23314;51.114;6.900;2024-03-02T13:45:17;99758.88;;;17.25
37452;BMP280;23314;51.114;6.900;2024-03-02T13:47:43;99754.97;;;17.26
37452;BMP280;23314;51.114;6.900;2024-03-02T13:50:09;99747.69;;;17.32
37452;BMP280;23314;51.114;6.900;2024-03-02T13:52:34;99743.28;;;17.34
37452;BMP280;23314;51.114;6.900;2024-03-02T13:54:59;99741.78;;;17.28
37452;BMP280;23314;51.114;6.900;2024-03-02T13:57:25;99741.97;;;17.24
37452;BMP280;23314;51.114;6.900;2024-03-02T13:59:50;99733.47;;;17.31
37452;BMP280;23314;51.114;6.900;2024-03-02T14:02:16;99718.56;;;17.36
37452;BMP280;23314;51.114;6.900;2024-03-02T14:04:42;99725.22;;;17.41
37452;BMP280;23314;51.114;6.900;2024-03-02T14:07:07;99726.06;;;17.52
37452;BMP280;23314;51.114;6.900;2024-03-02T14:09:32;99718.78;;;17.59
37452;BMP280;23314;51.114;6.900;2024-03-02T14:11:58;99716.78;;;17.59
37452;BMP280;23314;51.114;6.900;2024-03-02T14:14:25;99708.91;;;17.55
37452;BMP280;23314;51.114;6.900;2024-03-02T14:16:52;99720.50;;;17.62
37452;BMP280;23314;51.114;6.900;2024-03-02T14:19:17;99702.16;;;17.66
37452;BMP280;23314;51.114;6.900;2024-03-02T14:21:42;99696.94;;;17.57